sensor_id;sensor_type;location;lat;lon;timestamp;P1;durP1;ratioP1;P2;durP2;ratioP2
77423;SDS011;66494;47.172;14.678;2023-12-22T00:01:07;1.13;;;0.20;;
77423;SDS011;66494;47.172;14.678;2023-12-22T00:02:08;0.22;;;0.10;;
77423;SDS011;66494;47.172;14.678;2023-12-22T00:03:08;0.50;;;0.10;;
77423;SDS011;66494;47.172;14.678;2023-12-22T00:04:08;1.35;;;0.10;;
77423;SDS011;66494;47.172;14.678;2023-12-22T00:05:08;0.22;;;0.10;;
77423;SDS011;66494;47.172;14.678;2023-12-22T00:06:09;0.52;;;0.10;;
77423;SDS011;66494;47.172;14.678;2023-12-22T00:07:11;0.25;;;0.00;;
77423;SDS011;66494;47.172;14.678;2023-12-22T00:09:11;0.22;;;0.10;;
77423;SDS011;66494;47.172;14.678;2023-12-22T00:11:12;0.00;;;0.00;;
77423;SDS011;66494;47.172;14.678;2023-12-22T00:12:12;0.32;;;0.10;;
77423;SDS011;66494;47.172;14.678;2023-12-22T00:13:12;0.10;;;0.00;;
77423;SDS011;66494;47.172;14.678;2023-12-22T00:14:12;0.20;;;0.00;;
77423;SDS011;66494;47.172;14.678;2023-12-22T00:15:13;0.82;;;0.10;;
77423;SDS011;66494;47.172;14.678;2023-12-22T00:17:13;0.38;;;0.10;;
77423;SDS011;66494;47.172;14.678;2023-12-22T00:19:14;0.45;;;0.20;;
77423;SDS011;66494;47.172;14.678;2023-12-22T00:20:14;0.77;;;0.22;;
77423;SDS011;66494;47.172;14.678;2023-12-22T00:21:14;0.50;;;0.20;;
77423;SDS011;66494;47.172;14.678;2023-12-22T00:22:15;0.38;;;0.20;;
77423;SDS011;66494;47.172;14.678;2023-12-22T00:23:15;0.52;;;0.30;;
77423;SDS011;66494;47.172;14.678;2023-12-22T00:24:15;0.85;;;0.35;;
77423;SDS011;66494;47.172;14.678;2023-12-22T00:26:15;0.52;;;0.17;;
77423;SDS011;66494;47.172;14.678;2023-12-22T00:28:16;0.22;;;0.13;;
77423;SDS011;66494;47.172;14.678;2023-12-22T00:30:16;0.88;;;0.47;;
77423;SDS011;66494;47.172;14.678;2023-12-22T00:31:16;0.30;;;0.08;;
77423;SDS011;66494;47.172;14.678;2023-12-22T00:32:17;0.00;;;0.00;;
77423;SDS011;66494;47.172;14.678;2023-12-22T00:33:17;0.25;;;0.10;;
77423;SDS011;66494;47.172;14.678;2023-12-22T00:34:17;0.50;;;0.20;;
77423;SDS011;66494;47.172;14.678;2023-12-22T00:35:19;0.22;;;0.13;;
77423;SDS011;66494;47.172;14.678;2023-12-22T00:36:19;0.00;;;0.00;;
77423;SDS011;66494;47.172;14.678;2023-12-22T00:37:24;2.60;;;0.40;;
77423;SDS011;66494;47.172;14.678;2023-12-22T00:38:24;0.05;;;0.00;;
77423;SDS011;66494;47.172;14.678;2023-12-22T00:40:24;0.20;;;0.15;;
77423;SDS011;66494;47.172;14.678;2023-12-22T00:41:25;0.55;;;0.17;;
77423;SDS011;66494;47.172;14.678;2023-12-22T00:42:25;3.13;;;0.35;;
77423;SDS011;66494;47.172;14.678;2023-12-22T00:43:28;0.40;;;0.10;;
77423;SDS011;66494;47.172;14.678;2023-12-22T00:44:28;0.00;;;0.00;;
77423;SDS011;66494;47.172;14.678;2023-12-22T00:45:29;0.15;;;0.00;;
77423;SDS011;66494;47.172;14.678;2023-12-22T00:46:29;0.47;;;0.00;;
77423;SDS011;66494;47.172;14.678;2023-12-22T00:47:30;0.00;;;0.00;;
77423;SDS011;66494;47.172;14.678;2023-12-22T00:49:30;0.17;;;0.10;;
77423;SDS011;66494;47.172;14.678;2023-12-22T00:51:30;0.95;;;0.32;;
77423;SDS011;66494;47.172;14.678;2023-12-22T00:52:31;0.22;;;0.10;;
77423;SDS011;66494;47.172;14.678;2023-12-22T00:53:31;0.32;;;0.10;;
77423;SDS011;66494;47.172;14.678;2023-12-22T00:55:32;0.25;;;0.00;;
77423;SDS011;66494;47.172;14.678;2023-12-22T00:56:32;0.03;;;0.00;;
77423;SDS011;66494;47.172;14.678;2023-12-22T00:57:32;0.45;;;0.10;;
77423;SDS011;66494;47.172;14.678;2023-12-22T00:58:33;0.30;;;0.13;;
77423;SDS011;66494;47.172;14.678;2023-12-22T00:59:33;0.10;;;0.00;;
77423;SDS011;66494;47.172;14.678;2023-12-22T01:00:33;0.00;;;0.00;;
77423;SDS011;66494;47.172;14.678;2023-12-22T01:01:33;0.30;;;0.05;;
77423;SDS011;66494;47.172;14.678;2023-12-22T01:02:33;0.00;;;0.00;;
77423;SDS011;66494;47.172;14.678;2023-12-22T01:03:34;0.30;;;0.20;;
77423;SDS011;66494;47.172;14.678;2023-12-22T01:05:34;0.00;;;0.00;;
77423;SDS011;66494;47.172;14.678;2023-12-22T01:06:37;0.00;;;0.00;;
77423;SDS011;66494;47.172;14.678;2023-12-22T01:07:38;0.38;;;0.10;;
77423;SDS011;66494;47.172;14.678;2023-12-22T01:08:39;0.00;;;0.00;;
77423;SDS011;66494;47.172;14.678;2023-12-22T01:09:39;0.08;;;0.00;;
77423;SDS011;66494;47.172;14.678;2023-12-22T01:11:39;0.20;;;0.00;;
77423;SDS011;66494;47.172;14.678;2023-12-22T01:12:39;0.00;;;0.00;;
77423;SDS011;66494;47.172;14.678;2023-12-22T01:13:40;0.20;;;0.00;;
77423;SDS011;66494;47.172;14.678;2023-12-22T01:14:40;0.00;;;0.00;;
77423;SDS011;66494;47.172;14.678;2023-12-22T01:15:40;0.17;;;0.00;;
77423;SDS011;66494;47.172;14.678;2023-12-22T01:16:40;1.65;;;0.00;;
77423;SDS011;66494;47.172;14.678;2023-12-22T01:17:41;0.00;;;0.00;;
77423;SDS011;66494;47.172;14.678;2023-12-22T01:19:43;0.10;;;0.00;;
77423;SDS011;66494;47.172;14.678;2023-12-22T01:20:45;0.15;;;0.00;;
77423;SDS011;66494;47.172;14.678;2023-12-22T01:21:45;0.00;;;0.00;;
77423;SDS011;66494;47.172;14.678;2023-12-22T01:22:45;0.08;;;0.00;;
77423;SDS011;66494;47.172;14.678;2023-12-22T01:23:46;3.53;;;0.10;;
77423;SDS011;66494;47.172;14.678;2023-12-22T01:25:46;1.27;;;0.00;;
77423;SDS011;66494;47.172;14.678;2023-12-22T01:26:46;0.00;;;0.00;;
77423;SDS011;66494;47.172;14.678;2023-12-22T01:27:47;0.20;;;0.20;;
77423;SDS011;66494;47.172;14.678;2023-12-22T01:28:48;0.30;;;0.00;;
77423;SDS011;66494;47.172;14.678;2023-12-22T01:29:48;0.20;;;0.00;;
77423;SDS011;66494;47.172;14.678;2023-12-22T01:30:48;0.00;;;0.00;;
77423;SDS011;66494;47.172;14.678;2023-12-22T01:31:48;0.00;;;0.00;;
77423;SDS011;66494;47.172;14.678;2023-12-22T01:32:49;0.00;;;0.00;;
77423;SDS011;66494;47.172;14.678;2023-12-22T01:33:49;0.10;;;0.00;;
77423;SDS011;66494;47.172;14.678;2023-12-22T01:34:49;0.38;;;0.17;;
77423;SDS011;66494;47.172;14.678;2023-12-22T01:36:50;0.30;;;0.10;;
77423;SDS011;66494;47.172;14.678;2023-12-22T01:37:50;0.45;;;0.10;;
77423;SDS011;66494;47.172;14.678;2023-12-22T01:38:51;0.35;;;0.10;;
77423;SDS011;66494;47.172;14.678;2023-12-22T01:39:51;0.60;;;0.20;;
77423;SDS011;66494;47.172;14.678;2023-12-22T01:40:51;0.65;;;0.17;;
77423;SDS011;66494;47.172;14.678;2023-12-22T01:41:51;0.50;;;0.20;;
77423;SDS011;66494;47.172;14.678;2023-12-22T01:42:52;2.63;;;0.10;;
77423;SDS011;66494;47.172;14.678;2023-12-22T01:43:52;1.83;;;0.10;;
77423;SDS011;66494;47.172;14.678;2023-12-22T01:44:52;0.43;;;0.00;;
77423;SDS011;66494;47.172;14.678;2023-12-22T01:45:56;0.05;;;0.00;;
77423;SDS011;66494;47.172;14.678;2023-12-22T01:46:56;0.57;;;0.10;;
77423;SDS011;66494;47.172;14.678;2023-12-22T01:47:57;0.30;;;0.05;;
77423;SDS011;66494;47.172;14.678;2023-12-22T01:48:58;0.08;;;0.00;;
77423;SDS011;66494;47.172;14.678;2023-12-22T01:50:00;0.00;;;0.00;;
77423;SDS011;66494;47.172;14.678;2023-12-22T01:51:01;0.45;;;0.00;;
77423;SDS011;66494;47.172;14.678;2023-12-22T01:52:02;0.00;;;0.00;;
77423;SDS011;66494;47.172;14.678;2023-12-22T01:53:02;0.08;;;0.03;;
77423;SDS011;66494;47.172;14.678;2023-12-22T01:54:03;0.00;;;0.00;;
77423;SDS011;66494;47.172;14.678;2023-12-22T01:55:05;0.28;;;0.10;;
77423;SDS011;66494;47.172;14.678;2023-12-22T01:56:05;0.10;;;0.00;;
77423;SDS011;66494;47.172;14.678;2023-12-22T01:57:06;0.75;;;0.10;;
77423;SDS011;66494;47.172;14.678;2023-12-22T01:59:06;0.13;;;0.00;;
77423;SDS011;66494;47.172;14.678;2023-12-22T02:00:07;0.88;;;0.40;;
77423;SDS011;66494;47.172;14.678;2023-12-22T02:01:08;0.93;;;0.28;;
77423;SDS011;66494;47.172;14.678;2023-12-22T02:02:08;0.40;;;0.20;;
77423;SDS011;66494;47.172;14.678;2023-12-22T02:04:08;0.20;;;0.10;;
77423;SDS011;66494;47.172;14.678;2023-12-22T02:06:11;0.63;;;0.10;;
77423;SDS011;66494;47.172;14.678;2023-12-22T02:07:11;0.63;;;0.40;;
77423;SDS011;66494;47.172;14.678;2023-12-22T02:08:12;1.23;;;0.32;;
77423;SDS011;66494;47.172;14.678;2023-12-22T02:09:12;1.98;;;0.00;;
77423;SDS011;66494;47.172;14.678;2023-12-22T02:10:13;0.00;;;0.00;;
77423;SDS011;66494;47.172;14.678;2023-12-22T02:12:13;0.05;;;0.00;;
77423;SDS011;66494;47.172;14.678;2023-12-22T02:13:13;0.00;;;0.00;;
77423;SDS011;66494;47.172;14.678;2023-12-22T02:15:14;0.20;;;0.00;;
77423;SDS011;66494;47.172;14.678;2023-12-22T02:17:15;0.57;;;0.20;;
77423;SDS011;66494;47.172;14.678;2023-12-22T02:18:24;4.78;;;0.10;;
77423;SDS011;66494;47.172;14.678;2023-12-22T02:20:38;0.00;;;0.00;;
77423;SDS011;66494;47.172;14.678;2023-12-22T02:21:58;0.00;;;0.00;;
77423;SDS011;66494;47.172;14.678;2023-12-22T02:22:59;0.00;;;0.00;;
77423;SDS011;66494;47.172;14.678;2023-12-22T02:23:59;0.00;;;0.00;;
77423;SDS011;66494;47.172;14.678;2023-12-22T02:26:06;0.00;;;0.00;;
77423;SDS011;66494;47.172;14.678;2023-12-22T02:28:13;0.00;;;0.00;;
77423;SDS011;66494;47.172;14.678;2023-12-22T02:29:16;0.50;;;0.00;;
77423;SDS011;66494;47.172;14.678;2023-12-22T02:30:24;0.40;;;0.15;;
77423;SDS011;66494;47.172;14.678;2023-12-22T02:31:27;0.00;;;0.00;;
77423;SDS011;66494;47.172;14.678;2023-12-22T02:32:34;0.30;;;0.00;;
77423;SDS011;66494;47.172;14.678;2023-12-22T02:33:35;0.00;;;0.00;;
77423;SDS011;66494;47.172;14.678;2023-12-22T02:34:36;0.00;;;0.00;;
77423;SDS011;66494;47.172;14.678;2023-12-22T02:35:37;0.00;;;0.00;;
77423;SDS011;66494;47.172;14.678;2023-12-22T02:36:38;0.00;;;0.00;;
77423;SDS011;66494;47.172;14.678;2023-12-22T02:37:39;0.00;;;0.00;;
77423;SDS011;66494;47.172;14.678;2023-12-22T02:38:39;0.30;;;0.00;;
77423;SDS011;66494;47.172;14.678;2023-12-22T02:39:40;0.10;;;0.00;;
77423;SDS011;66494;47.172;14.678;2023-12-22T02:40:42;0.00;;;0.00;;
77423;SDS011;66494;47.172;14.678;2023-12-22T02:41:43;0.00;;;0.00;;
77423;SDS011;66494;47.172;14.678;2023-12-22T02:42:44;0.10;;;0.00;;
77423;SDS011;66494;47.172;14.678;2023-12-22T02:43:44;0.68;;;0.68;;
77423;SDS011;66494;47.172;14.678;2023-12-22T02:44:45;0.00;;;0.00;;
77423;SDS011;66494;47.172;14.678;2023-12-22T02:45:45;0.00;;;0.00;;
77423;SDS011;66494;47.172;14.678;2023-12-22T02:46:49;0.00;;;0.00;;
77423;SDS011;66494;47.172;14.678;2023-12-22T02:47:49;0.00;;;0.00;;
77423;SDS011;66494;47.172;14.678;2023-12-22T02:48:50;0.00;;;0.00;;
77423;SDS011;66494;47.172;14.678;2023-12-22T02:50:50;0.00;;;0.00;;
77423;SDS011;66494;47.172;14.678;2023-12-22T02:51:50;0.00;;;0.00;;
77423;SDS011;66494;47.172;14.678;2023-12-22T02:53:51;0.00;;;0.00;;
77423;SDS011;66494;47.172;14.678;2023-12-22T02:54:51;0.00;;;0.00;;
77423;SDS011;66494;47.172;14.678;2023-12-22T02:55:51;0.00;;;0.00;;
77423;SDS011;66494;47.172;14.678;2023-12-22T02:57:52;0.00;;;0.00;;
77423;SDS011;66494;47.172;14.678;2023-12-22T02:59:52;0.00;;;0.00;;
77423;SDS011;66494;47.172;14.678;2023-12-22T03:01:52;0.00;;;0.00;;
77423;SDS011;66494;47.172;14.678;2023-12-22T03:03:53;0.32;;;0.00;;
77423;SDS011;66494;47.172;14.678;2023-12-22T03:04:53;0.00;;;0.00;;
77423;SDS011;66494;47.172;14.678;2023-12-22T03:06:53;0.00;;;0.00;;
77423;SDS011;66494;47.172;14.678;2023-12-22T03:07:54;0.20;;;0.00;;
77423;SDS011;66494;47.172;14.678;2023-12-22T03:08:54;0.00;;;0.00;;
77423;SDS011;66494;47.172;14.678;2023-12-22T03:09:54;0.00;;;0.00;;
77423;SDS011;66494;47.172;14.678;2023-12-22T03:11:54;0.00;;;0.00;;
77423;SDS011;66494;47.172;14.678;2023-12-22T03:12:57;0.15;;;0.10;;
77423;SDS011;66494;47.172;14.678;2023-12-22T03:13:57;0.00;;;0.00;;
77423;SDS011;66494;47.172;14.678;2023-12-22T03:15:57;0.30;;;0.30;;
77423;SDS011;66494;47.172;14.678;2023-12-22T03:17:58;0.43;;;0.10;;
77423;SDS011;66494;47.172;14.678;2023-12-22T03:19:58;0.00;;;0.00;;
77423;SDS011;66494;47.172;14.678;2023-12-22T03:20:58;0.00;;;0.00;;
77423;SDS011;66494;47.172;14.678;2023-12-22T03:21:59;0.00;;;0.00;;
77423;SDS011;66494;47.172;14.678;2023-12-22T03:23:59;0.00;;;0.00;;
77423;SDS011;66494;47.172;14.678;2023-12-22T03:26:02;0.00;;;0.00;;
77423;SDS011;66494;47.172;14.678;2023-12-22T03:27:02;9.13;;;0.10;;
77423;SDS011;66494;47.172;14.678;2023-12-22T03:28:03;0.00;;;0.00;;
77423;SDS011;66494;47.172;14.678;2023-12-22T03:29:03;0.00;;;0.00;;
77423;SDS011;66494;47.172;14.678;2023-12-22T03:31:04;0.00;;;0.00;;
77423;SDS011;66494;47.172;14.678;2023-12-22T03:32:04;0.00;;;0.00;;
77423;SDS011;66494;47.172;14.678;2023-12-22T03:33:04;0.00;;;0.00;;
77423;SDS011;66494;47.172;14.678;2023-12-22T03:34:06;0.08;;;0.00;;
77423;SDS011;66494;47.172;14.678;2023-12-22T03:35:06;0.00;;;0.00;;
77423;SDS011;66494;47.172;14.678;2023-12-22T03:37:07;0.00;;;0.00;;
77423;SDS011;66494;47.172;14.678;2023-12-22T03:38:07;0.10;;;0.10;;
77423;SDS011;66494;47.172;14.678;2023-12-22T03:39:07;0.00;;;0.00;;
77423;SDS011;66494;47.172;14.678;2023-12-22T03:40:08;0.30;;;0.05;;
77423;SDS011;66494;47.172;14.678;2023-12-22T03:41:09;0.00;;;0.00;;
77423;SDS011;66494;47.172;14.678;2023-12-22T03:42:09;0.00;;;0.00;;
77423;SDS011;66494;47.172;14.678;2023-12-22T03:43:10;0.00;;;0.00;;
77423;SDS011;66494;47.172;14.678;2023-12-22T03:45:10;0.00;;;0.00;;
77423;SDS011;66494;47.172;14.678;2023-12-22T03:46:10;0.00;;;0.00;;
77423;SDS011;66494;47.172;14.678;2023-12-22T03:47:11;0.00;;;0.00;;
77423;SDS011;66494;47.172;14.678;2023-12-22T03:49:11;0.00;;;0.00;;
77423;SDS011;66494;47.172;14.678;2023-12-22T03:51:11;0.00;;;0.00;;
77423;SDS011;66494;47.172;14.678;2023-12-22T03:52:13;0.00;;;0.00;;
77423;SDS011;66494;47.172;14.678;2023-12-22T03:54:14;0.00;;;0.00;;
77423;SDS011;66494;47.172;14.678;2023-12-22T03:55:17;0.00;;;0.00;;
77423;SDS011;66494;47.172;14.678;2023-12-22T03:56:17;0.00;;;0.00;;
77423;SDS011;66494;47.172;14.678;2023-12-22T03:58:19;0.10;;;0.10;;
77423;SDS011;66494;47.172;14.678;2023-12-22T03:59:19;0.05;;;0.00;;
77423;SDS011;66494;47.172;14.678;2023-12-22T04:01:20;0.00;;;0.00;;
77423;SDS011;66494;47.172;14.678;2023-12-22T04:03:20;0.00;;;0.00;;
77423;SDS011;66494;47.172;14.678;2023-12-22T04:04:20;0.10;;;0.00;;
77423;SDS011;66494;47.172;14.678;2023-12-22T04:05:22;0.00;;;0.00;;
77423;SDS011;66494;47.172;14.678;2023-12-22T04:06:23;0.05;;;0.00;;
77423;SDS011;66494;47.172;14.678;2023-12-22T04:08:23;0.00;;;0.00;;
77423;SDS011;66494;47.172;14.678;2023-12-22T04:10:23;0.00;;;0.00;;
77423;SDS011;66494;47.172;14.678;2023-12-22T04:12:24;0.00;;;0.00;;
77423;SDS011;66494;47.172;14.678;2023-12-22T04:14:24;0.00;;;0.00;;
77423;SDS011;66494;47.172;14.678;2023-12-22T04:16:24;0.20;;;0.00;;
77423;SDS011;66494;47.172;14.678;2023-12-22T04:17:25;0.38;;;0.38;;
77423;SDS011;66494;47.172;14.678;2023-12-22T04:18:25;0.50;;;0.10;;
77423;SDS011;66494;47.172;14.678;2023-12-22T04:19:25;0.15;;;0.10;;
77423;SDS011;66494;47.172;14.678;2023-12-22T04:20:25;0.00;;;0.00;;
77423;SDS011;66494;47.172;14.678;2023-12-22T04:22:26;0.70;;;0.10;;
77423;SDS011;66494;47.172;14.678;2023-12-22T04:23:26;0.30;;;0.05;;
77423;SDS011;66494;47.172;14.678;2023-12-22T04:24:26;0.00;;;0.00;;
77423;SDS011;66494;47.172;14.678;2023-12-22T04:26:27;0.00;;;0.00;;
77423;SDS011;66494;47.172;14.678;2023-12-22T04:28:27;2.33;;;0.00;;
77423;SDS011;66494;47.172;14.678;2023-12-22T04:30:27;0.15;;;0.00;;
77423;SDS011;66494;47.172;14.678;2023-12-22T04:31:28;0.00;;;0.00;;
77423;SDS011;66494;47.172;14.678;2023-12-22T04:32:28;0.13;;;0.00;;
77423;SDS011;66494;47.172;14.678;2023-12-22T04:33:28;0.00;;;0.00;;
77423;SDS011;66494;47.172;14.678;2023-12-22T04:35:29;0.03;;;0.00;;
77423;SDS011;66494;47.172;14.678;2023-12-22T04:36:29;0.00;;;0.00;;
77423;SDS011;66494;47.172;14.678;2023-12-22T04:37:29;0.20;;;0.08;;
77423;SDS011;66494;47.172;14.678;2023-12-22T04:38:30;0.20;;;0.10;;
77423;SDS011;66494;47.172;14.678;2023-12-22T04:40:30;0.03;;;0.03;;
77423;SDS011;66494;47.172;14.678;2023-12-22T04:41:30;0.47;;;0.32;;
77423;SDS011;66494;47.172;14.678;2023-12-22T04:42:31;0.10;;;0.03;;
77423;SDS011;66494;47.172;14.678;2023-12-22T04:44:32;0.00;;;0.00;;
77423;SDS011;66494;47.172;14.678;2023-12-22T04:45:32;0.10;;;0.10;;
77423;SDS011;66494;47.172;14.678;2023-12-22T04:46:32;1.05;;;0.20;;
77423;SDS011;66494;47.172;14.678;2023-12-22T04:47:32;0.38;;;0.17;;
77423;SDS011;66494;47.172;14.678;2023-12-22T04:48:35;0.65;;;0.20;;
77423;SDS011;66494;47.172;14.678;2023-12-22T04:49:35;2.15;;;0.20;;
77423;SDS011;66494;47.172;14.678;2023-12-22T04:50:36;0.08;;;0.03;;
77423;SDS011;66494;47.172;14.678;2023-12-22T04:51:36;0.43;;;0.22;;
77423;SDS011;66494;47.172;14.678;2023-12-22T04:52:36;0.45;;;0.10;;
77423;SDS011;66494;47.172;14.678;2023-12-22T04:53:36;0.40;;;0.20;;
77423;SDS011;66494;47.172;14.678;2023-12-22T04:54:37;0.28;;;0.10;;
77423;SDS011;66494;47.172;14.678;2023-12-22T04:55:37;0.40;;;0.10;;
77423;SDS011;66494;47.172;14.678;2023-12-22T04:57:37;0.52;;;0.10;;
77423;SDS011;66494;47.172;14.678;2023-12-22T04:58:38;0.40;;;0.00;;
77423;SDS011;66494;47.172;14.678;2023-12-22T04:59:38;0.30;;;0.20;;
77423;SDS011;66494;47.172;14.678;2023-12-22T05:00:38;0.20;;;0.10;;
77423;SDS011;66494;47.172;14.678;2023-12-22T05:02:38;0.30;;;0.30;;
77423;SDS011;66494;47.172;14.678;2023-12-22T05:03:39;0.30;;;0.17;;
77423;SDS011;66494;47.172;14.678;2023-12-22T05:05:39;1.15;;;0.17;;
77423;SDS011;66494;47.172;14.678;2023-12-22T05:06:39;2.15;;;0.68;;
77423;SDS011;66494;47.172;14.678;2023-12-22T05:07:40;2.33;;;1.42;;
77423;SDS011;66494;47.172;14.678;2023-12-22T05:09:43;1.98;;;0.70;;
77423;SDS011;66494;47.172;14.678;2023-12-22T05:10:43;0.95;;;0.55;;
77423;SDS011;66494;47.172;14.678;2023-12-22T05:11:44;1.02;;;0.38;;
77423;SDS011;66494;47.172;14.678;2023-12-22T05:12:44;1.05;;;0.47;;
77423;SDS011;66494;47.172;14.678;2023-12-22T05:13:44;1.63;;;0.30;;
77423;SDS011;66494;47.172;14.678;2023-12-22T05:15:45;0.00;;;0.00;;
77423;SDS011;66494;47.172;14.678;2023-12-22T05:16:45;0.10;;;0.00;;
77423;SDS011;66494;47.172;14.678;2023-12-22T05:17:45;0.98;;;0.10;;
77423;SDS011;66494;47.172;14.678;2023-12-22T05:18:46;0.08;;;0.00;;
77423;SDS011;66494;47.172;14.678;2023-12-22T05:19:46;0.10;;;0.00;;
77423;SDS011;66494;47.172;14.678;2023-12-22T05:21:47;0.20;;;0.10;;
77423;SDS011;66494;47.172;14.678;2023-12-22T05:22:49;0.00;;;0.00;;
77423;SDS011;66494;47.172;14.678;2023-12-22T05:23:49;0.20;;;0.00;;
77423;SDS011;66494;47.172;14.678;2023-12-22T05:25:50;0.00;;;0.00;;
77423;SDS011;66494;47.172;14.678;2023-12-22T05:27:51;0.17;;;0.07;;
77423;SDS011;66494;47.172;14.678;2023-12-22T05:28:52;0.40;;;0.10;;
77423;SDS011;66494;47.172;14.678;2023-12-22T05:29:52;1.08;;;0.30;;
77423;SDS011;66494;47.172;14.678;2023-12-22T05:30:52;0.30;;;0.15;;
77423;SDS011;66494;47.172;14.678;2023-12-22T05:31:52;0.43;;;0.10;;
77423;SDS011;66494;47.172;14.678;2023-12-22T05:32:53;0.40;;;0.20;;
77423;SDS011;66494;47.172;14.678;2023-12-22T05:33:54;0.32;;;0.10;;
77423;SDS011;66494;47.172;14.678;2023-12-22T05:34:54;0.98;;;0.35;;
77423;SDS011;66494;47.172;14.678;2023-12-22T05:36:55;1.13;;;0.60;;
77423;SDS011;66494;47.172;14.678;2023-12-22T05:37:55;1.20;;;0.70;;
77423;SDS011;66494;47.172;14.678;2023-12-22T05:38:55;2.08;;;0.60;;
77423;SDS011;66494;47.172;14.678;2023-12-22T05:40:56;2.67;;;0.50;;
77423;SDS011;66494;47.172;14.678;2023-12-22T05:41:56;1.42;;;0.60;;
77423;SDS011;66494;47.172;14.678;2023-12-22T05:43:56;2.95;;;0.70;;
77423;SDS011;66494;47.172;14.678;2023-12-22T05:44:57;2.70;;;0.77;;
77423;SDS011;66494;47.172;14.678;2023-12-22T05:45:58;0.90;;;0.50;;
77423;SDS011;66494;47.172;14.678;2023-12-22T05:46:58;0.95;;;0.63;;
77423;SDS011;66494;47.172;14.678;2023-12-22T05:48:58;1.27;;;0.60;;
77423;SDS011;66494;47.172;14.678;2023-12-22T05:49:59;1.10;;;0.63;;
77423;SDS011;66494;47.172;14.678;2023-12-22T05:50:59;0.98;;;0.30;;
77423;SDS011;66494;47.172;14.678;2023-12-22T05:52:02;1.13;;;0.45;;
77423;SDS011;66494;47.172;14.678;2023-12-22T05:53:02;0.77;;;0.57;;
77423;SDS011;66494;47.172;14.678;2023-12-22T05:54:03;1.63;;;0.60;;
77423;SDS011;66494;47.172;14.678;2023-12-22T05:55:03;1.77;;;0.88;;
77423;SDS011;66494;47.172;14.678;2023-12-22T05:56:04;0.20;;;0.10;;
77423;SDS011;66494;47.172;14.678;2023-12-22T05:57:04;0.60;;;0.28;;
77423;SDS011;66494;47.172;14.678;2023-12-22T05:58:06;1.02;;;0.40;;
77423;SDS011;66494;47.172;14.678;2023-12-22T05:59:06;0.50;;;0.20;;
77423;SDS011;66494;47.172;14.678;2023-12-22T06:01:07;0.30;;;0.25;;
77423;SDS011;66494;47.172;14.678;2023-12-22T06:02:08;0.70;;;0.22;;
77423;SDS011;66494;47.172;14.678;2023-12-22T06:03:08;0.88;;;0.38;;
77423;SDS011;66494;47.172;14.678;2023-12-22T06:04:08;0.45;;;0.20;;
77423;SDS011;66494;47.172;14.678;2023-12-22T06:05:08;0.28;;;0.17;;
77423;SDS011;66494;47.172;14.678;2023-12-22T06:06:09;0.63;;;0.20;;
77423;SDS011;66494;47.172;14.678;2023-12-22T06:07:10;0.45;;;0.35;;
77423;SDS011;66494;47.172;14.678;2023-12-22T06:09:10;0.83;;;0.17;;
77423;SDS011;66494;47.172;14.678;2023-12-22T06:10:14;0.85;;;0.30;;
77423;SDS011;66494;47.172;14.678;2023-12-22T06:11:15;1.00;;;0.35;;
77423;SDS011;66494;47.172;14.678;2023-12-22T06:12:15;1.05;;;0.50;;
77423;SDS011;66494;47.172;14.678;2023-12-22T06:13:15;1.40;;;0.52;;
77423;SDS011;66494;47.172;14.678;2023-12-22T06:14:15;1.13;;;0.63;;
77423;SDS011;66494;47.172;14.678;2023-12-22T06:15:16;1.92;;;0.82;;
77423;SDS011;66494;47.172;14.678;2023-12-22T06:16:16;1.02;;;0.70;;
77423;SDS011;66494;47.172;14.678;2023-12-22T06:17:18;0.75;;;0.63;;
77423;SDS011;66494;47.172;14.678;2023-12-22T06:18:18;1.80;;;0.98;;
77423;SDS011;66494;47.172;14.678;2023-12-22T06:19:19;1.55;;;1.25;;
77423;SDS011;66494;47.172;14.678;2023-12-22T06:20:19;1.95;;;1.17;;
77423;SDS011;66494;47.172;14.678;2023-12-22T06:22:19;1.35;;;0.98;;
77423;SDS011;66494;47.172;14.678;2023-12-22T06:23:20;1.02;;;0.82;;
77423;SDS011;66494;47.172;14.678;2023-12-22T06:24:20;3.42;;;1.10;;
77423;SDS011;66494;47.172;14.678;2023-12-22T06:25:20;2.60;;;1.13;;
77423;SDS011;66494;47.172;14.678;2023-12-22T06:26:21;1.25;;;0.90;;
77423;SDS011;66494;47.172;14.678;2023-12-22T06:28:21;4.75;;;1.45;;
77423;SDS011;66494;47.172;14.678;2023-12-22T06:30:21;4.93;;;3.38;;
77423;SDS011;66494;47.172;14.678;2023-12-22T06:31:22;10.50;;;5.18;;
77423;SDS011;66494;47.172;14.678;2023-12-22T06:33:22;3.90;;;2.30;;
77423;SDS011;66494;47.172;14.678;2023-12-22T06:34:22;2.00;;;1.30;;
77423;SDS011;66494;47.172;14.678;2023-12-22T06:35:23;2.88;;;1.00;;
77423;SDS011;66494;47.172;14.678;2023-12-22T06:36:25;1.02;;;0.45;;
77423;SDS011;66494;47.172;14.678;2023-12-22T06:37:25;3.55;;;0.68;;
77423;SDS011;66494;47.172;14.678;2023-12-22T06:39:25;1.40;;;0.85;;
77423;SDS011;66494;47.172;14.678;2023-12-22T06:41:29;6.00;;;1.00;;
77423;SDS011;66494;47.172;14.678;2023-12-22T06:42:30;2.22;;;1.40;;
77423;SDS011;66494;47.172;14.678;2023-12-22T06:43:30;1.20;;;0.80;;
77423;SDS011;66494;47.172;14.678;2023-12-22T06:45:31;3.75;;;0.80;;
77423;SDS011;66494;47.172;14.678;2023-12-22T06:46:31;2.97;;;0.98;;
77423;SDS011;66494;47.172;14.678;2023-12-22T06:47:32;2.05;;;0.80;;
77423;SDS011;66494;47.172;14.678;2023-12-22T06:48:32;2.80;;;1.17;;
77423;SDS011;66494;47.172;14.678;2023-12-22T06:49:32;3.25;;;1.95;;
77423;SDS011;66494;47.172;14.678;2023-12-22T06:51:33;5.50;;;2.30;;
77423;SDS011;66494;47.172;14.678;2023-12-22T06:52:36;4.57;;;2.80;;
77423;SDS011;66494;47.172;14.678;2023-12-22T06:53:37;5.20;;;2.53;;
77423;SDS011;66494;47.172;14.678;2023-12-22T06:55:37;8.90;;;3.53;;
77423;SDS011;66494;47.172;14.678;2023-12-22T06:57:38;5.03;;;2.88;;
77423;SDS011;66494;47.172;14.678;2023-12-22T06:58:38;5.70;;;2.97;;
77423;SDS011;66494;47.172;14.678;2023-12-22T06:59:38;5.22;;;2.90;;
77423;SDS011;66494;47.172;14.678;2023-12-22T07:00:40;3.42;;;2.25;;
77423;SDS011;66494;47.172;14.678;2023-12-22T07:01:40;12.27;;;3.28;;
77423;SDS011;66494;47.172;14.678;2023-12-22T07:02:41;4.35;;;2.55;;
77423;SDS011;66494;47.172;14.678;2023-12-22T07:06:06;3.05;;;1.90;;
77423;SDS011;66494;47.172;14.678;2023-12-22T07:07:06;3.05;;;1.73;;
77423;SDS011;66494;47.172;14.678;2023-12-22T07:10:16;18.10;;;9.85;;
77423;SDS011;66494;47.172;14.678;2023-12-22T07:11:16;5.68;;;3.30;;
77423;SDS011;66494;47.172;14.678;2023-12-22T07:12:17;4.40;;;2.38;;
77423;SDS011;66494;47.172;14.678;2023-12-22T07:13:18;3.65;;;1.55;;
77423;SDS011;66494;47.172;14.678;2023-12-22T07:14:18;2.30;;;1.45;;
77423;SDS011;66494;47.172;14.678;2023-12-22T07:15:18;1.48;;;1.02;;
77423;SDS011;66494;47.172;14.678;2023-12-22T07:16:19;2.83;;;0.73;;
77423;SDS011;66494;47.172;14.678;2023-12-22T07:17:19;1.20;;;0.60;;
77423;SDS011;66494;47.172;14.678;2023-12-22T07:19:19;1.00;;;0.60;;
77423;SDS011;66494;47.172;14.678;2023-12-22T07:20:20;1.52;;;0.73;;
77423;SDS011;66494;47.172;14.678;2023-12-22T07:22:21;0.98;;;0.70;;
77423;SDS011;66494;47.172;14.678;2023-12-22T07:23:24;1.60;;;1.05;;
77423;SDS011;66494;47.172;14.678;2023-12-22T07:24:27;1.02;;;0.40;;
77423;SDS011;66494;47.172;14.678;2023-12-22T07:25:27;0.70;;;0.50;;
77423;SDS011;66494;47.172;14.678;2023-12-22T07:26:27;0.65;;;0.35;;
77423;SDS011;66494;47.172;14.678;2023-12-22T07:27:27;0.68;;;0.50;;
77423;SDS011;66494;47.172;14.678;2023-12-22T07:28:27;0.47;;;0.28;;
77423;SDS011;66494;47.172;14.678;2023-12-22T07:29:28;0.88;;;0.60;;
77423;SDS011;66494;47.172;14.678;2023-12-22T07:31:29;0.10;;;0.10;;